Time;durP1;ratioP1;P1;durP2;ratioP2;P2;SDS_P1;SDS_P2;PMS_P1;PMS_P2;Temp;Humidity;BMP_temperature;BMP_pressure;BME280_temperature;BME280_humidity;BME280_pressure;Samples;Min_cycle;Max_cycle;Signal;HPM_P1;HPM_P2
2022/02/05 00:02:33;;;;;;;;;5.00;5.00;;;;;4.59;71.68;102100.22;5072829;28;49793;-61
2022/02/05 00:04:59;;;;;;;;;6.25;4.00;;;;;4.55;70.51;102095.63;5067266;28;49951;-61
2022/02/05 00:07:27;;;;;;;;;10.50;9.25;;;;;4.47;71.37;102091.63;5056820;27;49887;-61
2022/02/05 00:10:27;;;;;;;;;6.75;5.25;;;;;4.62;71.11;102125.53;5051329;28;49830;-61
2022/02/05 00:13:16;;;;;;;;;6.75;6.75;;;;;4.57;71.67;102105.31;5053092;28;49807;-62
2022/02/05 00:15:55;;;;;;;;;10.00;8.25;;;;;4.61;72.60;102111.63;5046746;28;49696;-61
2022/02/05 00:40:29;;;;;;;;;8.75;8.75;;;;;4.40;72.16;102107.59;5052433;28;49896;-61
2022/02/05 00:42:54;;;;;;;;;4.25;4.25;;;;;4.47;72.07;102115.03;5051657;28;49799;-61
2022/02/05 00:45:19;;;;;;;;;6.50;5.50;;;;;4.44;72.36;102112.19;5051768;28;49651;-61
2022/02/05 00:47:46;;;;;;;;;8.50;7.50;;;;;4.47;72.38;102130.63;5052365;28;49834;-61
2022/02/05 00:50:18;;;;;;;;;7.50;5.75;;;;;4.50;72.37;102126.50;5052220;28;49803;-62
2022/02/05 00:52:56;;;;;;;;;4.75;2.00;;;;;4.54;72.36;102127.63;5051788;28;50832;-61
2022/02/05 00:55:25;;;;;;;;;5.00;4.00;;;;;4.53;72.03;102128.41;5051833;28;49665;-61
2022/02/05 00:57:50;;;;;;;;;7.50;6.75;;;;;4.39;71.95;102104.09;5051710;28;49825;-61
2022/02/05 01:00:18;;;;;;;;;5.75;5.00;;;;;4.41;73.05;102105.09;5051982;28;50015;-61
2022/02/05 01:02:44;;;;;;;;;10.50;6.00;;;;;4.53;72.09;102134.50;5051596;28;50088;-61
2022/02/05 01:05:10;;;;;;;;;6.25;5.25;;;;;4.41;72.59;102125.00;5051564;28;49642;-61
2022/02/05 01:07:36;;;;;;;;;5.00;5.00;;;;;3.89;72.18;102041.81;5065547;28;49778;-61
2022/02/05 01:10:02;;;;;;;;;4.75;4.75;;;;;4.41;72.68;102138.91;5072163;28;49711;-61
2022/02/05 01:12:30;;;;;;;;;5.75;5.00;;;;;4.42;72.52;102135.50;5071709;28;50339;-61
2022/02/05 01:14:58;;;;;;;;;5.00;4.50;;;;;4.47;73.02;102154.03;5071563;28;49743;-62
2022/02/05 01:17:31;;;;;;;;;6.25;6.00;;;;;4.23;72.55;102114.25;5070294;28;49836;-61
2022/02/05 01:22:22;;;;;;;;;4.75;3.25;;;;;4.39;72.80;102148.31;5071538;28;49766;-61
2022/02/05 01:24:50;;;;;;;;;10.00;6.75;;;;;4.35;72.92;102146.31;5071735;27;49698;-61
2022/02/05 01:27:33;;;;;;;;;4.25;4.25;;;;;4.32;73.41;102149.56;5071849;28;50072;-61
2022/02/05 01:30:12;;;;;;;;;5.00;5.00;;;;;4.29;73.34;102146.78;5071645;27;49752;-63
2022/02/05 01:32:42;;;;;;;;;5.00;4.25;;;;;3.79;73.20;102067.97;5071506;28;50508;-61
2022/02/05 01:35:16;;;;;;;;;7.00;5.50;;;;;4.21;73.15;102141.84;5071524;28;49651;-61
2022/02/05 01:54:14;;;;;;;;;3.00;2.00;;;;;3.93;73.26;102144.25;5071178;27;50554;-61
2022/02/05 01:56:42;;;;;;;;;6.25;4.25;;;;;4.01;73.41;102164.78;5070901;28;49777;-61
2022/02/05 02:12:08;;;;;;;;;5.00;5.00;;;;;4.13;73.72;102187.19;5071179;27;49621;-61
2022/02/05 02:25:11;;;;;;;;;5.00;5.00;;;;;4.06;73.78;102211.88;5070948;27;50291;-61
2022/02/05 02:27:53;;;;;;;;;4.75;3.50;;;;;3.98;73.78;102192.25;5070859;27;49799;-61
2022/02/05 02:30:24;;;;;;;;;7.50;5.00;;;;;4.00;73.69;102214.94;5070454;27;49764;-61
2022/02/05 02:32:58;;;;;;;;;5.25;3.50;;;;;3.98;73.97;102206.13;5070781;28;49774;-61
2022/02/05 02:35:26;;;;;;;;;7.50;4.25;;;;;3.93;73.65;102196.22;5070528;28;50887;-61
2022/02/05 02:37:57;;;;;;;;;5.50;5.00;;;;;3.82;74.60;102173.78;5070876;27;50050;-61
2022/02/05 02:40:29;;;;;;;;;7.25;5.00;;;;;3.98;73.80;102208.75;5069519;28;49913;-61
2022/02/05 02:43:02;;;;;;;;;9.50;4.75;;;;;3.72;73.81;102180.00;5070921;28;49791;-61
2022/02/05 02:45:27;;;;;;;;;8.25;5.50;;;;;3.74;74.66;102189.72;5070147;27;49759;-61
2022/02/05 02:47:53;;;;;;;;;8.25;5.00;;;;;3.83;74.09;102206.75;5070608;28;49594;-61
2022/02/05 02:58:22;;;;;;;;;9.25;4.50;;;;;3.66;74.45;102195.16;5074028;28;50002;-60
2022/02/05 03:00:54;;;;;;;;;10.25;5.75;;;;;3.62;74.91;102193.13;5074008;27;49939;-60
2022/02/05 03:03:19;;;;;;;;;5.50;5.50;;;;;3.77;74.67;102219.31;5074234;28;49936;-60
2022/02/05 03:05:44;;;;;;;;;8.50;8.50;;;;;3.58;75.43;102191.13;5073484;28;50709;-61
2022/02/05 03:08:10;;;;;;;;;5.00;4.00;;;;;3.68;75.03;102209.16;5073772;27;49711;-61
2022/02/05 03:10:35;;;;;;;;;4.50;4.50;;;;;3.73;75.27;102237.25;5073862;27;50320;-61
2022/02/05 03:13:00;;;;;;;;;5.00;5.00;;;;;3.61;75.01;102217.31;5074056;28;49957;-60
2022/02/05 03:15:32;;;;;;;;;6.00;6.00;;;;;3.63;75.04;102226.09;5073092;28;54117;-60
2022/02/05 03:18:05;;;;;;;;;10.50;8.25;;;;;3.43;75.65;102202.19;5073737;28;49735;-60
2022/02/05 03:20:32;;;;;;;;;8.00;5.25;;;;;3.70;75.22;102246.53;5073795;28;49762;-60
2022/02/05 03:23:00;;;;;;;;;9.00;7.75;;;;;3.61;75.29;102238.97;5073830;28;49847;-61
2022/02/05 03:25:32;;;;;;;;;6.00;5.00;;;;;3.48;74.70;102215.53;5073317;27;50601;-61
2022/02/05 03:28:00;;;;;;;;;7.75;6.50;;;;;3.53;74.87;102228.81;5073802;28;49939;-61
2022/02/05 03:30:26;;;;;;;;;4.00;4.00;;;;;3.45;75.03;102220.47;5073352;28;49717;-61
2022/02/05 03:32:52;;;;;;;;;5.50;4.75;;;;;3.51;75.38;102233.91;5067285;28;49653;-61
2022/02/05 03:35:17;;;;;;;;;8.00;8.00;;;;;3.62;74.71;102261.56;5073308;27;49806;-60
2022/02/05 03:37:43;;;;;;;;;6.00;6.00;;;;;3.52;74.90;102246.09;5073254;27;49777;-61
2022/02/05 03:40:10;;;;;;;;;6.50;5.25;;;;;3.49;75.09;102248.50;5073342;28;49591;-61
2022/02/05 03:42:35;;;;;;;;;10.75;7.25;;;;;3.34;75.70;102219.69;5072057;28;49967;-61
2022/02/05 03:45:03;;;;;;;;;9.00;8.00;;;;;3.43;74.80;102237.66;5072799;28;50619;-61
2022/02/05 03:47:32;;;;;;;;;10.00;5.75;;;;;3.40;75.44;102227.94;5073085;28;49700;-60
2022/02/05 03:49:58;;;;;;;;;17.75;13.00;;;;;3.42;75.55;102246.22;5073354;28;49523;-60
2022/02/05 03:52:23;;;;;;;;;6.50;6.50;;;;;3.53;75.14;102263.50;5073465;28;50208;-61
2022/02/05 03:54:48;;;;;;;;;10.25;9.00;;;;;3.36;75.61;102241.47;5072988;28;50610;-61
2022/02/05 03:57:14;;;;;;;;;6.00;6.00;;;;;3.47;75.29;102263.03;5072981;28;49648;-61
2022/02/05 03:59:39;;;;;;;;;8.25;8.25;;;;;3.38;74.96;102264.97;5072822;28;49703;-61
2022/02/05 04:02:05;;;;;;;;;8.00;8.00;;;;;3.26;76.08;102233.81;5072807;28;50059;-60
2022/02/05 04:04:31;;;;;;;;;8.00;6.50;;;;;3.38;75.38;102252.00;5072316;28;50952;-61
2022/02/05 04:06:56;;;;;;;;;11.50;11.50;;;;;3.22;75.56;102223.09;5072753;27;49773;-61
2022/02/05 04:09:27;;;;;;;;;8.50;8.50;;;;;3.26;75.23;102228.63;5072953;28;49731;-60
2022/02/05 04:12:00;;;;;;;;;13.75;8.25;;;;;3.40;75.48;102255.59;5073071;28;49886;-61
2022/02/05 04:17:10;;;;;;;;;10.50;9.00;;;;;3.42;75.45;102275.69;5072640;28;49849;-62
2022/02/05 04:19:36;;;;;;;;;10.00;9.50;;;;;3.41;76.06;102265.19;5072890;28;49605;-61
2022/02/05 04:22:01;;;;;;;;;11.25;8.25;;;;;3.35;74.91;102260.44;5072898;28;49720;-60
2022/02/05 04:24:27;;;;;;;;;8.50;5.75;;;;;3.15;75.03;102233.03;5072608;28;51113;-60
2022/02/05 04:26:54;;;;;;;;;7.25;5.00;;;;;3.40;75.42;102266.00;5072755;28;50184;-61
2022/02/05 04:29:19;;;;;;;;;14.25;9.25;;;;;3.27;75.63;102240.81;5072690;28;49861;-61
2022/02/05 04:31:44;;;;;;;;;9.25;5.00;;;;;3.35;76.35;102259.53;5072734;28;49990;-60
2022/02/05 04:34:10;;;;;;;;;5.00;5.00;;;;;3.19;76.19;102238.47;5072413;28;50514;-61
2022/02/05 04:36:36;;;;;;;;;8.00;5.00;;;;;3.42;75.68;102272.19;5071999;28;49739;-60
2022/02/05 04:39:10;;;;;;;;;9.25;7.00;;;;;3.42;75.19;102260.09;5072710;28;50201;-60
2022/02/05 04:56:45;;;;;;;;;10.75;9.75;;;;;3.35;76.61;102277.72;5072280;28;50057;-61
2022/02/05 05:04:35;;;;;;;;;5.50;5.50;;;;;3.27;75.84;102271.03;5071806;28;49781;-62
2022/02/05 05:12:36;;;;;;;;;8.75;8.75;;;;;3.12;76.96;102250.06;5065872;28;49620;-61
2022/02/05 05:20:23;;;;;;;;;11.75;11.00;;;;;3.26;75.99;102284.81;5071702;28;49856;-61
2022/02/05 05:22:49;;;;;;;;;11.25;9.00;;;;;3.11;76.80;102267.31;5071951;28;49777;-61
2022/02/05 05:25:15;;;;;;;;;12.50;8.00;;;;;3.07;75.82;102270.47;5071516;28;49769;-61
2022/02/05 05:27:40;;;;;;;;;10.50;8.00;;;;;3.01;76.38;102262.25;5071575;28;49910;-61
2022/02/05 05:30:07;;;;;;;;;14.00;12.00;;;;;3.13;76.61;102276.13;5071523;28;50059;-61
2022/02/05 05:32:32;;;;;;;;;14.00;9.50;;;;;3.20;76.87;102289.56;5071630;28;50201;-60
2022/02/05 05:34:58;;;;;;;;;11.75;11.75;;;;;3.15;76.02;102286.59;5071354;28;50569;-61
2022/02/05 05:37:23;;;;;;;;;13.00;11.50;;;;;3.13;76.61;102283.91;5071647;28;50067;-61
2022/02/05 05:39:50;;;;;;;;;15.25;10.25;;;;;2.77;76.08;102237.94;5071434;27;49904;-60
2022/02/05 05:42:24;;;;;;;;;9.00;5.00;;;;;2.87;76.74;102250.81;5071884;28;50299;-61
2022/02/05 05:47:37;;;;;;;;;9.25;8.50;;;;;3.05;76.00;102303.19;5071504;28;49917;-61
2022/02/05 05:50:47;;;;;;;;;10.50;10.50;;;;;2.88;76.20;102269.88;5071351;27;49835;-61
2022/02/05 05:52:50;;;;;;;;;13.25;8.50;;;;;3.03;76.40;102296.97;5071278;28;50039;-61
2022/02/05 05:55:18;;;;;;;;;9.25;9.25;;;;;2.88;77.22;102275.06;5071088;27;50859;-61
2022/02/05 05:57:43;;;;;;;;;8.00;8.00;;;;;2.93;76.73;102278.00;5071296;28;49925;-61
2022/02/05 06:00:09;;;;;;;;;7.50;5.00;;;;;2.83;76.92;102260.84;5071032;28;49906;-61
2022/02/05 06:02:34;;;;;;;;;10.50;9.75;;;;;3.04;77.26;102300.47;5071392;27;49849;-62
2022/02/05 06:04:59;;;;;;;;;9.75;9.25;;;;;2.80;76.87;102264.13;5070994;27;49689;-61
2022/02/05 06:07:25;;;;;;;;;11.00;10.50;;;;;2.83;77.53;102269.53;5070911;27;49799;-61
2022/02/05 06:09:50;;;;;;;;;9.00;8.00;;;;;2.85;77.78;102272.25;5064327;28;49710;-62
2022/02/05 06:12:16;;;;;;;;;8.00;8.00;;;;;2.95;77.37;102304.97;5071303;28;49982;-61
2022/02/05 06:14:42;;;;;;;;;9.00;9.00;;;;;3.02;78.01;102312.44;5070696;27;50776;-60
2022/02/05 06:17:09;;;;;;;;;8.75;8.75;;;;;3.03;76.75;102322.03;5070796;28;49868;-61
2022/02/05 06:19:36;;;;;;;;;10.50;8.25;;;;;2.91;77.52;102302.94;5071062;28;49841;-60
2022/02/05 06:22:02;;;;;;;;;10.50;7.00;;;;;3.05;77.48;102317.84;5071135;28;49615;-61
2022/02/05 06:24:27;;;;;;;;;10.50;9.00;;;;;2.87;76.84;102287.13;5070519;28;52087;-62
2022/02/05 06:26:54;;;;;;;;;12.25;9.50;;;;;2.89;77.26;102295.00;5070265;27;49846;-62
2022/02/05 06:29:20;;;;;;;;;8.00;8.00;;;;;3.01;77.55;102323.59;5070786;28;49576;-61
2022/02/05 06:31:45;;;;;;;;;13.50;9.50;;;;;2.93;77.04;102314.34;5070900;28;49612;-62
2022/02/05 06:34:10;;;;;;;;;7.00;7.00;;;;;2.86;76.55;102308.66;5070760;27;50816;-62
2022/02/05 06:36:36;;;;;;;;;8.50;8.50;;;;;2.95;77.50;102329.22;5069400;28;49694;-61
2022/02/05 06:39:03;;;;;;;;;9.00;9.00;;;;;2.85;77.16;102314.63;5070927;28;49910;-60
2022/02/05 06:41:28;;;;;;;;;14.50;12.50;;;;;2.96;78.06;102341.41;5070888;28;49799;-61
2022/02/05 06:43:53;;;;;;;;;27.25;24.00;;;;;2.90;77.46;102334.84;5070439;28;51166;-60
2022/02/05 06:46:19;;;;;;;;;37.00;32.50;;;;;2.87;77.61;102335.50;5070260;27;49857;-60
2022/02/05 06:48:44;;;;;;;;;21.50;18.25;;;;;2.93;77.87;102345.47;5070679;28;49627;-61
2022/02/05 06:51:09;;;;;;;;;23.25;19.25;;;;;2.19;77.14;102223.13;5070818;28;50036;-61
2022/02/05 06:53:35;;;;;;;;;18.75;16.75;;;;;2.90;77.49;102359.09;5070356;28;50944;-60
2022/02/05 06:56:00;;;;;;;;;20.00;18.75;;;;;2.80;76.83;102344.53;5069333;28;49954;-61
2022/02/05 06:58:25;;;;;;;;;24.25;17.75;;;;;2.97;77.19;102395.09;5070419;28;49696;-61
2022/02/05 07:00:51;;;;;;;;;18.75;17.75;;;;;2.93;76.95;102366.22;5070231;28;49795;-61
2022/02/05 07:03:17;;;;;;;;;17.50;15.50;;;;;2.76;77.60;102345.06;5070415;28;51107;-60
2022/02/05 07:05:44;;;;;;;;;13.25;11.75;;;;;2.82;78.04;102353.31;5070079;28;49898;-61
2022/02/05 07:08:09;;;;;;;;;12.00;11.00;;;;;2.95;77.47;102385.38;5070506;28;50011;-62
2022/02/05 07:10:40;;;;;;;;;15.50;11.00;;;;;2.95;77.12;102387.97;5070599;28;49640;-67
2022/02/05 07:13:15;;;;;;;;;12.25;10.75;;;;;2.95;77.41;102396.66;5070233;27;49619;-62
2022/02/05 07:15:49;;;;;;;;;10.00;9.00;;;;;2.93;76.92;102380.09;5064022;28;49725;-66
2022/02/05 07:18:40;;;;;;;;;12.00;11.25;;;;;2.98;77.12;102394.28;5067335;27;49942;-69
2022/02/05 07:23:52;;;;;;;;;10.25;9.25;;;;;2.90;77.34;102378.97;5070230;28;50444;-64
2022/02/05 07:29:14;;;;;;;;;15.50;12.25;;;;;2.95;77.21;102407.03;5065942;28;49789;-69
2022/02/05 07:31:46;;;;;;;;;9.00;6.75;;;;;2.95;77.26;102403.53;5086395;27;49804;-69
2022/02/05 07:34:12;;;;;;;;;9.75;8.00;;;;;2.87;78.50;102392.56;5068540;28;50248;-68
2022/02/05 07:36:38;;;;;;;;;13.00;12.00;;;;;2.97;77.91;102400.28;5069963;28;49791;-67
2022/02/05 07:39:06;;;;;;;;;8.25;8.25;;;;;3.09;78.03;102408.13;5054202;28;49741;-66
2022/02/05 07:41:32;;;;;;;;;12.00;9.00;;;;;3.13;77.51;102412.75;5073805;28;49915;-72
2022/02/05 07:43:58;;;;;;;;;11.25;9.00;;;;;3.07;77.50;102407.06;5073214;28;50484;-65
2022/02/05 07:46:24;;;;;;;;;11.00;8.75;;;;;3.03;77.51;102397.25;5073232;28;49846;-79
2022/02/05 07:48:50;;;;;;;;;10.00;9.00;;;;;2.92;77.54;102392.94;5073278;27;49875;-71
2022/02/05 07:51:15;;;;;;;;;15.00;12.00;;;;;2.97;77.76;102391.59;5073593;28;49848;-76
2022/02/05 07:53:41;;;;;;;;;8.25;8.25;;;;;3.15;78.63;102414.66;5072855;28;50682;-71
2022/02/05 07:56:07;;;;;;;;;12.25;8.50;;;;;3.24;78.95;102417.06;5073200;27;49924;-74
2022/02/05 07:58:34;;;;;;;;;6.00;3.50;;;;;3.33;78.87;102422.06;5073043;27;49819;-75
2022/02/05 08:01:01;;;;;;;;;13.75;10.75;;;;;3.13;78.72;102369.53;5071418;28;49792;-72
2022/02/05 08:03:27;;;;;;;;;12.25;12.25;;;;;2.97;78.18;102332.81;5072920;28;49794;-74
2022/02/05 08:05:52;;;;;;;;;9.00;9.00;;;;;3.45;77.70;102384.03;5073127;28;49798;-73
2022/02/05 08:08:22;;;;;;;;;11.25;11.25;;;;;3.26;78.44;102348.00;5073007;28;49640;-70
2022/02/05 08:10:54;;;;;;;;;15.75;12.50;;;;;3.42;78.56;102361.34;5073291;28;49822;-72
2022/02/05 08:13:20;;;;;;;;;12.25;12.25;;;;;3.58;78.62;102386.78;5071291;28;52050;-72
2022/02/05 08:15:52;;;;;;;;;16.00;11.75;;;;;3.62;77.50;102372.31;5072309;28;49880;-66
2022/02/05 08:18:18;;;;;;;;;14.00;11.50;;;;;3.64;77.75;102376.84;5072704;28;49742;-69
2022/02/05 08:20:43;;;;;;;;;12.00;12.00;;;;;3.73;77.84;102364.53;5073202;28;49820;-69
2022/02/05 08:23:08;;;;;;;;;12.50;10.25;;;;;3.99;77.15;102397.63;5072295;27;49925;-67
2022/02/05 08:25:34;;;;;;;;;14.25;11.25;;;;;3.95;77.67;102381.69;5070179;28;49822;-71
2022/02/05 08:27:59;;;;;;;;;12.50;12.50;;;;;3.92;77.63;102366.78;5072547;28;49855;-69
2022/02/05 08:30:24;;;;;;;;;11.75;10.75;;;;;4.02;77.02;102369.25;5072630;27;49679;-69
2022/02/05 08:32:50;;;;;;;;;8.75;8.75;;;;;4.22;77.63;102396.69;5072086;27;50852;-69
2022/02/05 08:35:15;;;;;;;;;12.00;12.00;;;;;4.06;78.04;102366.91;5070800;28;49998;-71
2022/02/05 08:37:45;;;;;;;;;9.00;9.00;;;;;4.12;76.66;102355.22;5072657;28;49869;-69
2022/02/05 08:40:11;;;;;;;;;4.00;4.00;;;;;4.42;77.21;102395.50;5072597;28;50020;-66
2022/02/05 08:42:37;;;;;;;;;12.00;10.00;;;;;4.27;77.09;102364.16;5072426;28;49737;-67
2022/02/05 08:45:03;;;;;;;;;8.50;6.00;;;;;4.42;78.23;102376.41;5072216;27;49590;-67
2022/02/05 08:47:29;;;;;;;;;6.00;5.00;;;;;4.36;77.38;102358.69;5072396;27;49943;-66
2022/02/05 08:49:56;;;;;;;;;9.75;7.00;;;;;4.62;77.47;102389.13;5072759;27;49889;-74
2022/02/05 08:52:21;;;;;;;;;6.75;5.75;;;;;4.68;76.78;102376.56;5072195;28;49982;-70
2022/02/05 08:54:47;;;;;;;;;8.50;5.50;;;;;4.77;77.10;102392.81;5072418;28;49873;-67
2022/02/05 08:57:12;;;;;;;;;8.00;6.00;;;;;4.99;77.04;102410.81;5072493;28;49704;-65
2022/02/05 09:00:04;;;;;;;;;12.25;7.00;;;;;5.01;76.66;102397.91;5072048;28;50103;-62
2022/02/05 09:02:37;;;;;;;;;5.50;5.00;;;;;4.91;76.20;102361.63;5065266;28;49853;-63
2022/02/05 09:07:47;;;;;;;;;5.25;5.25;;;;;5.26;76.48;102393.59;5071577;27;50035;-72
2022/02/05 09:10:50;;;;;;;;;5.50;5.50;;;;;5.27;75.71;102386.69;5072412;27;49625;-68
2022/02/05 09:15:44;;;;;;;;;8.00;5.75;;;;;5.44;76.17;102388.75;5066169;28;49753;-67
2022/02/05 09:18:09;;;;;;;;;7.50;6.00;;;;;5.11;75.34;102320.56;5070507;28;50221;-71
2022/02/05 09:20:35;;;;;;;;;10.00;8.25;;;;;5.04;74.84;102287.13;5070653;28;49898;-63
2022/02/05 09:23:01;;;;;;;;;6.00;5.00;;;;;5.61;74.69;102385.56;5071931;28;51480;-66
2022/02/05 09:25:27;;;;;;;;;7.25;6.00;;;;;5.62;74.33;102366.53;5071693;28;49673;-72
2022/02/05 09:27:53;;;;;;;;;9.75;9.00;;;;;5.81;75.50;102372.94;5070427;28;49727;-78
2022/02/05 09:30:28;;;;;;;;;10.25;7.75;;;;;5.70;74.18;102360.13;5070476;28;49719;-75
2022/02/05 09:32:54;;;;;;;;;6.25;5.00;;;;;6.10;74.94;102401.84;5071762;27;49699;-68
2022/02/05 09:35:20;;;;;;;;;11.25;8.00;;;;;6.10;74.56;102385.31;5064951;28;49682;-79
2022/02/05 09:37:46;;;;;;;;;7.25;5.00;;;;;5.58;74.93;102296.75;5104658;27;49784;-72
2022/02/05 09:40:11;;;;;;;;;5.50;5.00;;;;;5.11;74.67;102202.50;5071960;27;49954;-74
2022/02/05 09:42:45;;;;;;;;;2.50;2.50;;;;;6.26;73.85;102377.66;5070035;28;52847;-70
2022/02/05 09:45:10;;;;;;;;;3.00;2.00;;;;;6.31;73.61;102374.53;5071348;28;49891;-64
2022/02/05 09:47:37;;;;;;;;;2.75;2.75;;;;;6.26;73.69;102357.69;5071767;28;49753;-69
2022/02/05 09:50:04;;;;;;;;;5.75;3.00;;;;;5.83;73.95;102260.19;5071740;27;49979;-70
2022/02/05 09:52:32;;;;;;;;;7.25;5.00;;;;;6.67;72.30;102400.25;5071339;27;49928;-71
2022/02/05 09:54:57;;;;;;;;;1.25;1.00;;;;;6.82;72.85;102424.69;5069970;28;49877;-64
2022/02/05 09:57:23;;;;;;;;;6.75;6.25;;;;;6.89;73.47;102422.56;5071317;27;49779;-67
2022/02/05 09:59:56;;;;;;;;;7.50;7.50;;;;;7.01;74.97;102419.78;5071157;27;49638;-72
2022/02/05 10:02:21;;;;;;;;;7.75;5.50;;;;;7.08;74.34;102421.09;5070415;28;50862;-70
2022/02/05 10:05:00;;;;;;;;;5.00;5.00;;;;;7.13;72.83;102417.91;5070941;28;49748;-69
2022/02/05 10:07:26;;;;;;;;;5.00;4.50;;;;;7.14;73.10;102413.59;5065003;28;49862;-69
2022/02/05 10:10:04;;;;;;;;;3.00;3.00;;;;;7.24;72.76;102412.44;5070361;28;49878;-67
2022/02/05 10:12:30;;;;;;;;;6.50;3.00;;;;;6.80;71.68;102364.56;5071147;27;49790;-67
2022/02/05 10:14:57;;;;;;;;;5.75;3.00;;;;;7.22;72.62;102394.06;5071386;28;49828;-70
2022/02/05 10:17:45;;;;;;;;;5.50;2.00;;;;;7.28;72.32;102402.28;5070985;28;49797;-69
2022/02/05 10:20:13;;;;;;;;;5.00;5.00;;;;;7.37;70.60;102409.78;5071534;28;49876;-68
2022/02/05 10:22:41;;;;;;;;;6.75;6.75;;;;;7.40;72.29;102404.72;5070816;28;49756;-70
2022/02/05 10:25:16;;;;;;;;;7.00;5.50;;;;;7.52;71.51;102421.13;5071043;28;49904;-66
2022/02/05 10:27:44;;;;;;;;;7.50;5.00;;;;;7.56;70.93;102430.06;5071592;27;49913;-66
2022/02/05 10:30:30;;;;;;;;;5.00;5.00;;;;;7.21;71.71;102358.31;5071345;28;49779;-64
2022/02/05 10:32:58;;;;;;;;;3.00;3.00;;;;;7.73;72.04;102437.22;5065248;28;51037;-67
2022/02/05 10:43:32;;;;;;;;;4.50;2.25;;;;;8.01;69.55;102448.47;5070521;28;49842;-71
2022/02/05 10:46:00;;;;;;;;;5.00;2.75;;;;;7.72;68.26;102398.78;5070527;28;49602;-69
2022/02/05 10:48:26;;;;;;;;;2.50;2.50;;;;;7.45;69.50;102351.94;5070697;28;49795;-71
2022/02/05 10:50:56;;;;;;;;;3.00;2.00;;;;;7.93;70.13;102433.16;5070839;27;49928;-68
2022/02/05 10:53:30;;;;;;;;;2.00;2.00;;;;;7.90;69.46;102419.88;5070413;28;49802;-70
2022/02/05 10:56:11;;;;;;;;;4.50;2.75;;;;;8.14;68.47;102450.06;5062260;28;49958;-69
2022/02/05 11:07:11;;;;;;;;;10.00;3.00;;;;;8.01;69.12;102404.00;5070260;28;49882;-67
2022/02/05 11:09:38;;;;;;;;;3.50;3.00;;;;;8.02;69.57;102404.91;5070247;28;49674;-69
2022/02/05 11:20:10;;;;;;;;;7.75;4.50;;;;;8.42;68.58;102434.25;5073865;27;49762;-66
2022/02/05 11:22:49;;;;;;;;;3.50;1.75;;;;;8.29;68.83;102405.53;5073711;28;49922;-65
2022/02/05 11:25:16;;;;;;;;;2.00;1.75;;;;;8.33;69.49;102387.50;5073449;28;49752;-66
2022/02/05 11:27:44;;;;;;;;;8.25;6.75;;;;;8.68;68.32;102448.78;5073436;28;49703;-65
2022/02/05 11:30:34;;;;;;;;;2.00;2.00;;;;;8.80;68.77;102448.56;5076426;27;49891;-66
2022/02/05 11:33:08;;;;;;;;;4.00;2.25;;;;;8.73;69.06;102433.31;5067574;27;49819;-64
2022/02/05 11:35:47;;;;;;;;;1.50;1.00;;;;;8.80;67.27;102432.84;5073344;27;49910;-76
2022/02/05 11:38:15;;;;;;;;;4.25;2.00;;;;;8.80;66.05;102432.84;5077460;27;49795;-74
2022/02/05 11:40:52;;;;;;;;;1.00;1.00;;;;;8.86;64.89;102438.41;5105898;27;49925;-72
2022/02/05 11:43:19;;;;;;;;;2.50;2.50;;;;;8.79;65.90;102424.09;5073266;27;50080;-69
2022/02/05 11:45:45;;;;;;;;;4.25;4.25;;;;;8.83;65.72;102435.63;5068523;27;50867;-66
2022/02/05 11:48:54;;;;;;;;;2.25;2.25;;;;;8.87;67.97;102429.72;5079102;27;49808;-69
2022/02/05 11:51:30;;;;;;;;;1.75;1.75;;;;;8.93;65.71;102439.66;5068394;27;50019;-75
2022/02/05 11:53:55;;;;;;;;;1.75;1.75;;;;;8.94;63.72;102430.97;5073665;27;49539;-76
2022/02/05 11:57:07;;;;;;;;;2.50;2.00;;;;;8.97;63.47;102425.88;5060891;27;51745;-70
2022/02/05 11:59:49;;;;;;;;;2.00;2.00;;;;;9.04;65.55;102428.91;5067662;28;49700;-70
2022/02/05 12:02:19;;;;;;;;;4.75;3.00;;;;;9.04;66.09;102414.94;5073892;27;49948;-68
2022/02/05 12:04:45;;;;;;;;;2.00;2.00;;;;;9.01;64.90;102391.19;5073182;28;49677;-68
2022/02/05 12:07:12;;;;;;;;;2.75;2.00;;;;;9.04;63.89;102384.38;5079124;27;49893;-76
2022/02/05 12:09:47;;;;;;;;;2.75;1.75;;;;;9.20;64.69;102408.78;5078155;27;49956;-62
2022/02/05 12:12:35;;;;;;;;;3.75;2.00;;;;;9.27;66.35;102406.56;5082088;27;49802;-65
2022/02/05 12:15:06;;;;;;;;;2.25;1.00;;;;;9.34;65.18;102398.19;5078547;27;49409;-68
2022/02/05 12:18:05;;;;;;;;;2.00;1.50;;;;;9.49;65.05;102398.09;5087288;27;50784;-65
2022/02/05 12:21:07;;;;;;;;;1.00;1.00;;;;;9.49;61.46;102387.59;5081190;27;49781;-59
2022/02/05 12:26:15;;;;;;;;;1.00;1.00;;;;;9.57;63.56;102386.28;5094046;27;49656;-66
2022/02/05 12:28:42;;;;;;;;;0.00;0.00;;;;;9.60;61.44;102381.19;5086901;27;50420;-64
2022/02/05 12:31:16;;;;;;;;;5.75;1.75;;;;;9.64;60.87;102377.88;5095937;27;49691;-61
2022/02/05 12:34:13;;;;;;;;;2.00;1.00;;;;;9.69;58.85;102379.03;5087145;27;49370;-61
2022/02/05 12:36:40;;;;;;;;;0.00;0.00;;;;;9.74;59.54;102368.75;5086454;27;49380;-62
2022/02/05 12:39:27;;;;;;;;;1.75;1.00;;;;;9.73;56.98;102370.47;5087426;28;50498;-68
2022/02/05 12:41:56;;;;;;;;;2.75;1.00;;;;;9.49;58.54;102327.31;5087104;28;49843;-71
2022/02/05 12:44:23;;;;;;;;;4.00;2.25;;;;;9.65;58.08;102356.09;5090297;27;49440;-68
2022/02/05 12:46:56;;;;;;;;;4.50;2.50;;;;;9.74;60.27;102368.75;5087584;27;49864;-68
2022/02/05 12:49:30;;;;;;;;;1.50;1.00;;;;;9.26;57.69;102273.72;5088919;27;50134;-69
2022/02/05 12:51:58;;;;;;;;;2.75;2.75;;;;;9.65;57.34;102331.56;5092008;27;49404;-71
2022/02/05 12:54:26;;;;;;;;;4.00;1.75;;;;;9.97;57.30;102378.66;5093555;27;49472;-65
2022/02/05 12:56:54;;;;;;;;;3.00;2.25;;;;;9.95;57.13;102364.56;5085899;27;49972;-73
2022/02/05 12:59:27;;;;;;;;;0.50;0.50;;;;;10.04;54.59;102364.13;5089791;27;50331;-64
2022/02/05 13:02:00;;;;;;;;;2.25;2.00;;;;;10.19;55.81;102383.22;5082367;27;49767;-75
2022/02/05 13:04:31;;;;;;;;;2.25;2.25;;;;;10.03;54.00;102359.69;5085747;27;49895;-71
2022/02/05 13:07:09;;;;;;;;;0.75;0.75;;;;;10.16;52.92;102382.19;5087816;28;49442;-71
2022/02/05 13:09:48;;;;;;;;;2.00;2.00;;;;;9.86;55.04;102332.66;5080901;27;50402;-76
2022/02/05 13:12:17;;;;;;;;;2.00;2.00;;;;;9.89;53.43;102337.13;5087944;27;49881;-69
2022/02/05 13:14:45;;;;;;;;;3.00;0.00;;;;;10.13;54.03;102382.91;5072481;27;49928;-72
2022/02/05 13:28:06;;;;;;;;;2.00;1.00;;;;;9.84;55.09;102336.00;5080155;27;49861;-66
2022/02/05 13:36:17;;;;;;;;;1.25;1.00;;;;;9.65;56.70;102284.38;5070659;28;49722;-68
2022/02/05 13:41:49;;;;;;;;;2.25;1.00;;;;;9.80;55.85;102313.97;5070956;27;49741;-65
2022/02/05 13:44:18;;;;;;;;;1.50;0.50;;;;;9.57;56.33;102249.03;5077480;27;49788;-71
2022/02/05 13:47:04;;;;;;;;;0.00;0.00;;;;;10.15;53.60;102336.69;5051526;28;50440;-67
2022/02/05 13:49:33;;;;;;;;;1.75;0.75;;;;;10.16;54.52;102333.22;5064557;27;50102;-68
2022/02/05 13:52:06;;;;;;;;;1.00;1.00;;;;;9.71;53.09;102255.84;5071130;27;52429;-72
2022/02/05 13:54:34;;;;;;;;;0.50;0.50;;;;;9.95;54.23;102305.97;5069784;28;49849;-74
2022/02/05 13:57:01;;;;;;;;;1.75;1.00;;;;;9.52;53.35;102225.22;5071392;27;49682;-72
2022/02/05 13:59:28;;;;;;;;;4.00;1.00;;;;;9.56;52.63;102249.88;5072381;27;49786;-70
2022/02/05 14:01:54;;;;;;;;;3.25;2.25;;;;;9.61;52.30;102237.88;5071930;27;50606;-72
2022/02/05 14:04:23;;;;;;;;;0.75;0.75;;;;;10.24;52.75;102341.50;5073512;27;49809;-71
2022/02/05 14:06:56;;;;;;;;;0.00;0.00;;;;;10.25;52.29;102344.19;5076870;27;50052;-69
2022/02/05 14:09:48;;;;;;;;;2.00;1.00;;;;;10.25;52.23;102341.56;5079719;27;49961;-70
2022/02/05 14:12:19;;;;;;;;;0.00;0.00;;;;;10.07;53.55;102303.03;5070709;28;50056;-71
2022/02/05 14:15:03;;;;;;;;;0.50;0.50;;;;;10.20;54.02;102322.03;5077057;28;49811;-70
2022/02/05 14:17:28;;;;;;;;;0.00;0.00;;;;;10.24;53.45;102325.75;5051001;28;49721;-66
2022/02/05 14:20:11;;;;;;;;;0.50;0.00;;;;;10.34;52.23;102335.84;5074988;27;49780;-68
2022/02/05 14:22:39;;;;;;;;;1.00;0.00;;;;;9.09;52.00;102123.56;5071097;28;50449;-68
2022/02/05 14:25:12;;;;;;;;;0.00;0.00;;;;;10.34;51.16;102330.59;5077229;28;49780;-70
2022/02/05 14:27:41;;;;;;;;;3.00;0.00;;;;;9.76;51.60;102230.75;5082429;27;49672;-68
2022/02/05 14:30:13;;;;;;;;;0.00;0.00;;;;;9.91;50.08;102283.00;5073925;28;50021;-69